Terminal Aerodrome Forecast
Issued by NWS Northern Indiana

Home | Current Version | Previous Version | Text Only | Print | Product List | Glossary On
Versions: 1 2 3 4 5 6 7 8 9 10 11 12 13 14 15 16 17
000
FTUS43 KIWX 291120
TAFFWA
TAF
KFWA 291120Z 2912/3012 15008KT 5SM RA OVC035
     FM291400 13012KT 5SM RA BR OVC015
      TEMPO 2915/2918 2SM RA BR OVC008
     FM300000 24003KT 6SM BR OVC015
      TEMPO 3009/3012 3SM BR OVC008=

USA.gov is the U.S. government's official web portal to all federal, state and local government web resources and services.